Latest Weather Observations for Holsworthy

IDN60901

Issued at 1:55 pm EST Wednesday 1 October 2014 (issued every 10 minutes, with the page automatically refreshed every 10 minutes)

About weather observations | Map of Sydney area stations | Latest observations for Sydney area | Other Formats
Station Details ID: 066161 Name: HOLSWORTHY AERODROME AWS Lat: -33.99 Lon: 150.95 Height: 68.16 m
Data from the previous 72 hours. | See also: Recent months at Holsworthy
Date/Time
EST
Tmp

°C
App
Tmp
°C
Dew
Point
°C
Rel
Hum
%
Delta-T

°C
Wind Press
QNH
hPa
Press
MSL
hPa
Rain
since
9 am
mm
Dir
 
Spd
km/h
Gust
km/h
Spd
kts
Gust
kts
01/01:30pm 21.0 15.8 -2.8 20 10.1 WSW 15 20 8 11 1018.2 1018.0 0.0
01/01:00pm 21.0 14.8 -3.5 19 10.2 WSW 20 33 11 18 1018.2 1018.0 0.0
01/12:30pm 20.4 13.8 -3.3 20 9.9 WSW 22 35 12 19 1018.3 1018.1 0.0
01/12:00pm 20.3 13.6 -4.0 19 9.9 SW 22 39 12 21 1018.4 1018.2 0.0
01/11:30am 19.7 12.3 -3.9 20 9.6 S 26 39 14 21 1018.1 1017.9 0.0
01/11:00am 19.2 12.6 -3.6 21 9.3 WSW 22 33 12 18 1018.1 1017.9 0.0
01/10:30am 18.7 12.1 -3.4 22 9.0 WSW 22 39 12 21 1018.2 1018.0 0.0
01/10:05am 17.4 9.5 -5.1 21 8.8 WSW 28 50 15 27 1018.0 1017.8 0.0
01/10:00am 17.7 11.0 -4.3 22 8.7 WSW 22 37 12 20 1018.1 1017.9 0.0
01/09:30am 17.4 10.5 -2.3 26 8.1 SW 24 43 13 23 1018.1 1018.0 0.0
01/09:00am 16.7 9.4 -2.9 26 7.9 WSW 26 43 14 23 1017.8 1017.7 0.0
01/08:30am 15.9 8.2 -2.6 28 7.5 WSW 28 41 15 22 1017.6 1017.5 0.0
01/08:05am 15.5 7.8 -2.9 28 7.4 WSW 28 48 15 26 1017.0 1016.9 0.0
01/08:00am 15.7 9.3 -1.8 30 7.2 WSW 22 41 12 22 1017.0 1016.9 0.0
01/07:30am 14.8 8.1 -0.9 34 6.5 WSW 24 37 13 20 1016.7 1016.6 0.0
01/07:00am 14.3 8.5 0.2 38 5.9 WSW 20 37 11 20 1016.3 1016.2 0.0
01/06:30am 14.0 7.8 -0.4 37 6.0 WSW 22 37 12 20 1015.8 1015.7 0.0
01/06:15am 14.1 6.7 -0.7 36 6.1 SW 28 41 15 22 1015.5 1015.4 0.0
01/06:00am 13.8 10.9 -1.4 35 6.2 SW 4 17 2 9 1015.3 1015.2 0.0
01/05:30am 14.4 9.7 -2.1 32 6.6 SSW 13 19 7 10 1014.7 1014.6 0.0
01/05:00am 15.5 9.4 -2.0 30 7.1 SW 20 28 11 15 1013.8 1013.8 0.0
01/04:30am 16.5 11.0 0.6 34 6.9 SW 19 30 10 16 1012.6 1012.6 0.0
01/04:00am 16.7 14.6 4.1 43 5.9 S 4 9 2 5 1012.2 1012.2 0.0
01/03:30am 17.7 14.2 5.6 45 5.9 S 13 19 7 10 1011.8 1011.8 0.0
01/03:00am 18.5 13.7 5.7 43 6.3 SW 20 33 11 18 1011.4 1011.4 0.0
01/02:30am 19.7 13.3 5.4 39 7.0 WSW 28 56 15 30 1010.3 1010.3 0.0
01/02:05am 21.6 14.8 3.3 30 8.8 WSW 28 46 15 25 1009.3 1009.2 0.0
01/02:00am 22.2 16.0 2.3 27 9.4 WSW 24 41 13 22 1009.2 1009.1 0.0
01/01:30am 21.9 17.4 2.1 27 9.3 WSW 15 32 8 17 1008.4 1008.3 0.0
01/01:00am 21.3 17.9 2.1 28 9.0 WSW 9 15 5 8 1007.6 1007.5 0.0
01/12:30am 17.9 15.6 5.5 44 6.0 SW 7 9 4 5 1007.5 1007.4 0.0
01/12:00am 22.8 20.5 4.8 31 9.0 N 6 9 3 5 1007.4 1007.3 0.0
 
Date/Time
EST
Tmp

°C
App
Tmp
°C
Dew
Point
°C
Rel
Hum
%
Delta-T

°C
Wind Press
QNH
hPa
Press
MSL
hPa
Rain
since
9 am
mm
Dir
 
Spd
km/h
Gust
km/h
Spd
kts
Gust
kts
30/11:30pm 22.5 19.7 5.0 32 8.7 N 9 13 5 7 1007.4 1007.3 0.0
30/11:00pm 23.2 20.9 5.6 32 8.9 NW 7 11 4 6 1007.5 1007.4 0.0
30/10:30pm 22.9 20.0 4.9 31 9.0 W 9 13 5 7 1007.8 1007.7 0.0
30/10:00pm 24.4 21.2 5.2 29 9.7 WNW 11 17 6 9 1007.8 1007.7 0.0
30/09:30pm 24.9 21.6 4.6 27 10.2 WNW 11 15 6 8 1007.6 1007.5 0.0
30/09:00pm 26.1 22.4 4.6 25 10.9 WNW 13 20 7 11 1007.5 1007.4 0.0
30/08:30pm 26.4 22.3 4.2 24 11.2 WNW 15 24 8 13 1007.5 1007.4 0.0
30/08:00pm 26.4 22.7 4.2 24 11.2 NW 13 19 7 10 1007.5 1007.4 0.0
30/07:30pm 26.6 23.3 4.4 24 11.2 NW 11 15 6 8 1007.6 1007.5 0.0
30/07:00pm 28.1 23.9 3.7 21 12.3 NW 15 20 8 11 1007.6 1007.5 0.0
30/06:30pm 28.2 24.5 4.5 22 12.1 NW 13 17 7 9 1007.6 1007.5 0.0
30/06:00pm 29.5 24.6 4.2 20 13.0 WNW 19 32 10 17 1007.1 1007.0 0.0
30/05:30pm 30.3 25.4 4.1 19 13.5 WNW 19 35 10 19 1006.9 1006.8 0.0
30/05:00pm 31.4 25.8 3.4 17 14.4 WNW 22 41 12 22 1007.0 1006.9 0.0
30/04:30pm 31.9 24.0 2.1 15 15.0 WNW 33 54 18 29 1006.9 1006.8 0.0
30/04:00pm 32.7 25.1 2.7 15 15.3 WNW 32 59 17 32 1007.0 1006.9 0.0
30/03:30pm 33.3 26.0 2.2 14 15.8 WNW 30 50 16 27 1007.0 1006.9 0.0
30/03:17pm 33.4 26.1 2.3 14 15.8 WNW 30 48 16 26 1007.1 1007.0 0.0
30/03:00pm 33.5 27.9 3.3 15 15.7 NW 22 39 12 21 1007.1 1007.0 0.0
30/02:30pm 33.5 27.7 4.2 16 15.4 WNW 24 41 13 22 1007.5 1007.4 0.0
30/02:00pm 32.2 25.6 4.1 17 14.7 WNW 28 43 15 23 1008.2 1008.1 0.0
30/01:30pm 31.7 26.1 3.7 17 14.4 WNW 22 41 12 22 1008.6 1008.5 0.0
30/01:00pm 31.0 27.7 8.1 24 12.7 NW 15 26 8 14 1009.0 1008.9 0.0
30/12:30pm 31.3 27.2 7.7 23 13.0 NNW 19 30 10 16 1009.6 1009.6 0.0
30/12:00pm 30.1 26.4 9.6 28 11.6 N 19 28 10 15 1010.4 1010.4 0.0
30/11:30am 27.7 25.0 10.4 34 9.8 N 15 32 8 17 1010.9 1010.9 0.0
30/11:00am 26.1 23.9 9.4 35 9.2 NW 11 19 6 10 1011.7 1011.7 0.0
30/10:30am 26.4 24.2 9.3 34 9.4 NNW 11 19 6 10 1012.2 1012.2 0.0
30/10:00am 26.3 23.8 9.6 35 9.2 N 13 20 7 11 1012.6 1012.6 0.0
30/09:30am 24.3 23.7 12.3 47 6.9 N 7 11 4 6 1013.2 1013.2 0.0
30/09:00am 23.3 21.5 11.0 46 6.9 N 11 17 6 9 1013.5 1013.5 0.0
30/08:30am 21.6 20.5 11.9 54 5.4 N 9 13 5 7 1013.7 1013.7 0.0
30/08:00am 19.7 18.9 11.2 58 4.7 WNW 6 9 3 5 1013.7 1013.7 0.0
30/07:30am 18.5 17.7 11.8 65 3.7 WSW 7 11 4 6 1013.6 1013.6 0.0
30/07:00am 15.6 14.5 11.8 78 2.1 WSW 9 11 5 6 1013.3 1013.3 0.0
30/06:30am 11.6 10.0 10.2 91 0.7 WSW 9 13 5 7 1013.5 1013.5 0.0
30/06:00am 11.5 10.4 9.8 89 0.9 WSW 6 11 3 6 1013.1 1013.1 0.0
30/05:30am 12.5 11.6 11.2 92 0.7 WSW 7 9 4 5 1012.9 1012.9 0.0
30/05:00am 12.1 11.3 11.2 94 0.5 WSW 6 7 3 4 1012.6 1012.6 0.0
30/04:30am 11.2 10.2 10.3 94 0.5 SW 6 9 3 5 1012.8 1012.8 0.0
30/04:00am 11.4 11.1 10.1 92 0.7 SW 2 7 1 4 1012.7 1012.7 0.0
30/03:30am 11.7 10.6 10.6 93 0.6 SW 7 9 4 5 1012.9 1012.9 0.0
30/03:00am 11.5 10.5 10.2 92 0.7 SSW 6 7 3 4 1013.1 1013.1 0.0
30/02:30am 12.0 11.1 10.7 92 0.7 SSW 6 7 3 4 1013.4 1013.4 0.0
30/02:00am 12.2 11.1 10.8 91 0.7 SW 7 9 4 5 1013.6 1013.6 0.0
30/01:30am 12.4 12.6 10.5 88 1.0 CALM 0 0 0 0 1013.9 1013.9 0.0
30/01:00am 14.3 13.7 12.3 88 1.1 SE 7 7 4 4 1014.1 1014.1 0.0
30/12:30am 14.7 13.8 12.7 88 1.1 SE 9 9 5 5 1014.5 1014.4 0.0
30/12:00am 14.9 14.3 12.4 85 1.4 ESE 7 11 4 6 1014.7 1014.6 0.0
 
Date/Time
EST
Tmp

°C
App
Tmp
°C
Dew
Point
°C
Rel
Hum
%
Delta-T

°C
Wind Press
QNH
hPa
Press
MSL
hPa
Rain
since
9 am
mm
Dir
 
Spd
km/h
Gust
km/h
Spd
kts
Gust
kts
29/11:30pm 15.6 15.2 12.5 82 1.7 ENE 6 7 3 4 1014.9 1014.8 0.0
29/11:00pm 16.1 15.8 13.2 83 1.6 ENE 7 9 4 5 1014.8 1014.7 0.0
29/10:30pm 16.5 16.1 12.5 77 2.2 ESE 6 9 3 5 1014.8 1014.7 0.0
29/10:00pm 17.4 17.0 12.9 75 2.5 ENE 7 11 4 6 1015.0 1014.9 0.0
29/09:30pm 17.5 16.6 12.6 73 2.7 ENE 9 11 5 6 1014.9 1014.8 0.0
29/09:00pm 18.1 17.0 11.9 67 3.4 ESE 9 13 5 7 1014.8 1014.7 0.0
29/08:30pm 19.6 17.5 12.4 63 4.0 SSE 15 19 8 10 1014.7 1014.6 0.0
29/08:00pm 20.5 18.4 12.5 60 4.5 SE 15 17 8 9 1014.6 1014.5 0.0
29/07:30pm 22.0 19.5 11.1 50 6.0 SSE 15 19 8 10 1014.2 1014.2 0.0
29/07:00pm 24.4 20.1 8.0 35 8.7 SSE 20 32 11 17 1013.6 1013.6 0.0
29/06:30pm 25.5 23.7 7.1 31 9.7 W 6 9 3 5 1013.1 1013.1 0.0
29/06:00pm 27.2 24.8 7.1 28 10.7 NNW 9 13 5 7 1012.7 1012.7 0.0
29/05:30pm 28.6 25.9 7.2 26 11.5 NW 11 15 6 8 1012.3 1012.3 0.0
29/05:00pm 30.0 26.6 6.0 22 12.7 NW 13 20 7 11 1011.9 1011.9 0.0
29/04:30pm 30.7 26.8 5.2 20 13.4 WNW 15 32 8 17 1011.5 1011.5 0.0
29/04:00pm 31.2 26.8 4.9 19 13.8 WNW 17 24 9 13 1011.2 1011.2 0.0
29/03:30pm 31.9 28.2 4.6 18 14.3 WNW 13 22 7 12 1010.9 1010.9 0.0
29/03:00pm 31.5 26.6 4.3 18 14.2 NW 19 33 10 18 1010.8 1010.8 0.0
29/02:30pm 31.3 28.0 6.4 21 13.4 WNW 13 20 7 11 1011.1 1011.1 0.0
29/02:00pm 31.2 27.9 6.3 21 13.4 NNW 13 28 7 15 1011.5 1011.5 0.0
29/01:30pm 30.4 26.3 6.3 22 12.9 W 17 22 9 12 1012.0 1012.0 0.0
29/01:00pm 30.8 27.3 5.3 20 13.4 WNW 13 24 7 13 1012.3 1012.3 0.0
29/12:30pm 30.1 26.4 4.7 20 13.2 W 13 24 7 13 1012.5 1012.5 0.0
29/12:00pm 29.1 26.3 7.1 25 11.8 W 11 17 6 9 1013.0 1013.0 0.0
29/11:30am 28.5 25.4 7.1 26 11.5 NW 13 22 7 12 1013.4 1013.4 0.0
29/11:00am 27.4 23.4 6.8 27 10.9 NW 17 28 9 15 1013.7 1013.7 0.0
29/10:30am 26.7 24.6 8.2 31 10.0 NW 9 17 5 9 1013.8 1013.8 0.0
29/10:00am 25.1 23.1 8.6 35 8.9 NNE 9 20 5 11 1014.2 1014.2 0.0
29/09:30am 23.6 22.8 11.0 45 7.0 NNW 6 9 3 5 1014.5 1014.4 0.0
29/09:00am 21.5 20.3 9.7 47 6.4 WNW 6 11 3 6 1014.8 1014.7 0.0
29/08:30am 19.6 18.3 9.8 53 5.2 WNW 7 9 4 5 1014.7 1014.6 0.0
29/08:00am 17.7 15.9 9.3 58 4.4 W 9 13 5 7 1014.6 1014.5 0.0
29/07:30am 15.9 14.1 9.6 66 3.3 WSW 9 13 5 7 1014.4 1014.3 0.0
29/07:00am 13.4 11.3 8.3 71 2.5 SW 9 13 5 7 1014.4 1014.3 0.0
29/06:30am 13.2 11.3 8.9 75 2.2 WSW 9 11 5 6 1014.4 1014.3 0.0
29/06:00am 11.7 9.2 8.0 78 1.8 W 11 15 6 8 1013.9 1013.9 0.0
29/05:30am 11.5 9.0 8.0 79 1.7 W 11 13 6 7 1013.8 1013.8 0.0
29/05:00am 12.0 9.5 8.3 78 1.8 SW 11 13 6 7 1013.5 1013.5 0.0
29/04:30am 11.4 9.4 8.8 84 1.3 WSW 9 13 5 7 1013.3 1013.3 0.0
29/04:00am 10.8 8.9 9.1 89 0.8 WSW 9 11 5 6 1013.3 1013.3 0.0
29/03:30am 10.2 7.9 9.0 92 0.6 WSW 11 13 6 7 1013.3 1013.3 0.0
29/03:00am 10.7 9.3 9.0 89 0.8 N 6 7 3 4 1013.7 1013.7 0.0
29/02:30am 11.0 10.9 9.3 89 0.9 CALM 0 4 0 2 1014.0 1014.0 0.0
29/02:00am 11.2 9.9 9.3 88 1.0 SSE 6 6 3 3 1014.7 1014.6 0.0
29/01:30am 11.3 9.9 9.6 89 0.9 SSE 7 9 4 5 1015.1 1015.0 0.0
29/01:00am 11.9 11.8 9.5 85 1.2 CALM 0 0 0 0 1015.3 1015.2 0.0
29/12:30am 13.5 12.4 9.9 79 1.9 ENE 6 9 3 5 1015.2 1015.1 0.0
29/12:00am 14.1 13.0 10.7 80 1.8 ENE 7 11 4 6 1015.3 1015.2 0.0
 
Date/Time
EST
Tmp

°C
App
Tmp
°C
Dew
Point
°C
Rel
Hum
%
Delta-T

°C
Wind Press
QNH
hPa
Press
MSL
hPa
Rain
since
9 am
mm
Dir
 
Spd
km/h
Gust
km/h
Spd
kts
Gust
kts
28/11:30pm 12.6 11.1 10.5 87 1.1 E 9 11 5 6 1016.0 1015.9 0.0
28/11:00pm 12.9 12.0 10.6 86 1.2 E 6 7 3 4 1016.3 1016.2 0.0
28/10:30pm 13.1 13.2 10.1 82 1.6 CALM 0 4 0 2 1016.6 1016.5 0.0
28/10:00pm 14.0 13.5 10.6 80 1.8 ENE 4 6 2 3 1016.8 1016.7 0.0
28/09:30pm 14.6 14.7 10.0 74 2.4 CALM 0 6 0 3 1016.8 1016.7 0.0
28/09:00pm 16.3 15.3 11.0 71 2.8 E 7 9 4 5 1016.8 1016.7 0.0
28/08:30pm 16.9 15.6 11.2 69 3.1 ENE 9 13 5 7 1016.7 1016.6 0.0
28/08:00pm 16.9 15.6 11.2 69 3.1 ENE 9 13 5 7 1016.4 1016.3 0.0
28/07:30pm 17.8 15.8 11.6 67 3.4 ENE 13 17 7 9 1016.1 1016.0 0.0
28/07:00pm 18.0 16.1 11.8 67 3.4 NE 13 19 7 10 1015.7 1015.6 0.0
28/06:30pm 18.6 16.3 11.9 65 3.7 NE 15 24 8 13 1015.4 1015.3 0.0
28/06:00pm 19.2 16.6 12.0 63 4.0 ENE 17 26 9 14 1015.3 1015.2 0.0
28/05:30pm 20.1 17.1 11.8 59 4.6 E 19 24 10 13 1015.0 1014.9 0.0
28/05:00pm 21.3 18.7 11.9 55 5.3 ENE 17 24 9 13 1015.1 1015.0 0.0
28/04:30pm 22.2 19.0 11.3 50 6.1 E 19 28 10 15 1015.2 1015.1 0.0
28/04:00pm 23.3 19.8 11.0 46 6.9 ENE 20 30 11 16 1015.3 1015.2 0.0
28/03:30pm 24.3 21.2 10.2 41 7.8 NE 17 26 9 14 1015.2 1015.1 0.0
28/03:00pm 25.2 21.3 6.9 31 9.6 N 17 24 9 13 1015.4 1015.3 0.0
28/02:30pm 24.8 20.2 6.5 31 9.5 N 20 28 11 15 1015.8 1015.7 0.0
28/02:00pm 25.0 21.0 6.7 31 9.5 N 17 26 9 14 1016.3 1016.2 0.0

Latest Capital City Observations: Canberra | Sydney | Melbourne | Brisbane | Adelaide | Perth | Hobart | Darwin

Other Formats:

Comma delimited format used in spreadsheet applications
http://www.bom.gov.au/fwo/IDN60901/IDN60901.95761.axf

JavaScript Object Notation format (JSON) in row-major order
http://www.bom.gov.au/fwo/IDN60901/IDN60901.95761.json